Time;durP1;ratioP1;P1;durP2;ratioP2;P2;SDS_P1;SDS_P2;PMS_P1;PMS_P2;Temp;Humidity;BMP_temperature;BMP_pressure;BME280_temperature;BME280_humidity;BME280_pressure;Samples;Min_cycle;Max_cycle;Signal;HPM_P1;HPM_P2
2023/05/08 00:00:20;;;;;;;9.93;8.47;;;;;;;18.66;80.14;100630.53;5070614;28;20441;-77
2023/05/08 00:02:46;;;;;;;9.50;7.30;;;;;;;18.64;80.62;100630.81;5085810;28;20396;-77
2023/05/08 00:05:11;;;;;;;9.60;8.25;;;;;;;18.71;80.42;100641.44;5080796;28;20521;-77
2023/05/08 00:07:36;;;;;;;10.63;8.80;;;;;;;18.61;80.78;100633.31;5069351;28;20385;-77
2023/05/08 00:10:03;;;;;;;10.63;9.53;;;;;;;18.60;80.83;100637.19;5067068;28;20431;-77
2023/05/08 00:12:28;;;;;;;10.60;9.50;;;;;;;18.67;80.67;100640.41;5056525;28;20797;-77
2023/05/08 00:14:55;;;;;;;11.10;9.83;;;;;;;18.71;80.37;100646.09;5057235;28;20477;-77
2023/05/08 00:17:20;;;;;;;17.23;11.52;;;;;;;18.71;80.65;100638.69;5047809;28;20487;-76
2023/05/08 00:19:45;;;;;;;13.17;11.77;;;;;;;18.75;80.36;100630.69;5068477;28;20521;-77
2023/05/08 00:22:10;;;;;;;13.90;12.40;;;;;;;18.67;80.72;100627.47;5067658;28;20387;-77
2023/05/08 00:24:36;;;;;;;16.40;13.63;;;;;;;18.59;80.82;100630.06;5060669;28;20740;-77
2023/05/08 00:27:01;;;;;;;16.07;13.40;;;;;;;18.60;80.77;100631.72;5045082;28;20411;-77
2023/05/08 00:29:26;;;;;;;15.20;12.43;;;;;;;18.64;81.13;100635.47;5060510;28;20396;-77
2023/05/08 00:31:51;;;;;;;14.33;11.33;;;;;;;18.66;80.64;100633.28;5057416;28;20472;-77
2023/05/08 00:34:17;;;;;;;14.27;11.20;;;;;;;18.66;80.75;100633.28;5063390;28;20390;-76
2023/05/08 00:36:42;;;;;;;12.95;11.02;;;;;;;18.66;80.86;100636.03;5058037;28;20450;-77
2023/05/08 00:39:07;;;;;;;14.00;12.07;;;;;;;18.69;81.01;100640.09;5068122;28;20394;-77
2023/05/08 00:41:33;;;;;;;11.43;10.23;;;;;;;18.66;81.07;100630.53;5068438;28;20898;-77
2023/05/08 00:43:58;;;;;;;12.83;10.83;;;;;;;18.64;81.40;100630.00;5070298;28;20878;-77
2023/05/08 00:46:23;;;;;;;11.13;9.98;;;;;;;18.63;81.34;100628.38;5066523;28;20400;-77
2023/05/08 00:48:49;;;;;;;14.17;9.87;;;;;;;18.61;81.15;100638.81;5070988;28;20390;-77
2023/05/08 00:51:15;;;;;;;10.37;8.87;;;;;;;18.60;81.13;100638.03;5072058;28;20397;-77
2023/05/08 00:53:43;;;;;;;10.57;9.48;;;;;;;18.55;80.94;100634.50;5070953;28;20746;-77
2023/05/08 00:56:10;;;;;;;9.70;8.35;;;;;;;18.53;81.32;100636.75;5068339;28;20458;-77
2023/05/08 00:58:36;;;;;;;14.43;9.32;;;;;;;18.52;81.15;100644.16;5071921;28;20485;-77
2023/05/08 01:01:03;;;;;;;15.40;10.27;;;;;;;18.55;80.78;100646.31;5071918;28;20422;-77
2023/05/08 01:03:29;;;;;;;12.60;10.77;;;;;;;18.56;80.80;100642.47;5069785;28;20750;-77
2023/05/08 01:05:55;;;;;;;14.07;11.47;;;;;;;18.56;80.72;100642.47;5058177;28;20409;-76
2023/05/08 01:08:21;;;;;;;12.03;10.77;;;;;;;18.54;80.57;100638.38;5054564;28;20421;-77
2023/05/08 01:10:56;;;;;;;11.57;10.20;;;;;;;18.51;80.69;100641.69;5092223;28;20860;-77
2023/05/08 01:13:32;;;;;;;11.85;10.60;;;;;;;18.52;80.90;100644.16;5090681;28;20496;-77
2023/05/08 01:16:27;;;;;;;18.02;14.63;;;;;;;18.53;80.95;100644.97;5087330;28;20420;-77
2023/05/08 01:18:59;;;;;;;22.00;15.38;;;;;;;18.52;81.13;100638.66;5080934;28;20428;-77
2023/05/08 01:21:44;;;;;;;19.80;15.55;;;;;;;18.51;81.21;100637.03;5088961;28;20782;-77
2023/05/08 01:24:18;;;;;;;21.13;15.40;;;;;;;18.53;81.21;100634.00;5075635;28;20399;-77
2023/05/08 01:26:47;;;;;;;21.80;15.18;;;;;;;18.54;81.19;100639.19;5060304;28;20441;-77
2023/05/08 01:29:39;;;;;;;23.00;16.02;;;;;;;18.51;81.35;100634.28;5069860;28;20386;-77
2023/05/08 01:32:18;;;;;;;22.15;15.30;;;;;;;18.48;81.56;100640.31;5070423;28;20472;-77
2023/05/08 01:35:23;;;;;;;24.88;16.92;;;;;;;18.49;81.54;100641.13;5073560;28;20912;-76
2023/05/08 01:37:56;;;;;;;21.83;15.95;;;;;;;18.44;81.64;100635.72;5065245;28;20480;-76
2023/05/08 01:40:32;;;;;;;23.50;15.98;;;;;;;18.46;81.74;100639.81;5088787;28;20441;-77
2023/05/08 01:43:22;;;;;;;19.80;15.40;;;;;;;18.46;81.98;100647.22;5084120;28;20569;-77
2023/05/08 01:45:50;;;;;;;18.17;15.43;;;;;;;18.46;82.09;100644.47;5063914;28;20395;-77
2023/05/08 01:48:24;;;;;;;20.92;15.07;;;;;;;18.42;82.36;100643.41;5064845;28;20744;-77
2023/05/08 01:50:57;;;;;;;18.50;14.60;;;;;;;18.42;82.11;100637.94;5068834;28;20402;-76
2023/05/08 01:53:27;;;;;;;20.65;15.25;;;;;;;18.46;82.07;100647.22;5072895;28;20393;-76
2023/05/08 01:55:57;;;;;;;20.88;15.70;;;;;;;18.45;82.17;100645.56;5085226;28;20388;-77
2023/05/08 01:58:24;;;;;;;21.45;15.43;;;;;;;18.46;82.07;100638.97;5071935;28;20403;-77
2023/05/08 02:00:50;;;;;;;20.42;15.75;;;;;;;18.47;82.00;100652.44;5087281;28;20477;-77
2023/05/08 02:03:16;;;;;;;19.42;15.10;;;;;;;18.47;82.08;100649.69;5090898;28;20877;-77
2023/05/08 02:05:42;;;;;;;21.13;14.45;;;;;;;18.50;82.16;100654.63;5091091;28;20386;-76
2023/05/08 02:08:10;;;;;;;17.67;13.95;;;;;;;18.50;82.38;100657.38;5045029;28;20436;-76
2023/05/08 02:10:37;;;;;;;18.58;14.40;;;;;;;18.51;81.97;100652.66;5086886;28;20388;-77
2023/05/08 02:13:05;;;;;;;16.73;13.68;;;;;;;18.51;82.14;100648.00;5060520;28;20866;-77
2023/05/08 02:15:34;;;;;;;19.08;15.00;;;;;;;18.50;82.15;100653.78;5081713;28;20398;-77
2023/05/08 02:18:02;;;;;;;18.58;13.73;;;;;;;18.49;82.14;100652.13;5085544;28;20818;-77
2023/05/08 02:20:30;;;;;;;16.90;13.45;;;;;;;18.49;82.34;100652.13;5087469;28;20509;-77
2023/05/08 02:22:56;;;;;;;20.55;13.45;;;;;;;18.46;82.58;100650.78;5090631;28;20437;-77
2023/05/08 02:25:22;;;;;;;15.95;12.05;;;;;;;18.45;82.70;100653.81;5086792;28;20396;-76
2023/05/08 02:27:49;;;;;;;14.73;11.90;;;;;;;18.44;82.59;100661.22;5065555;28;20413;-77
2023/05/08 02:30:16;;;;;;;13.35;10.52;;;;;;;18.44;82.45;100660.44;5082628;28;20392;-77
2023/05/08 02:32:43;;;;;;;15.75;10.82;;;;;;;18.41;82.27;100661.81;5090205;28;20447;-76
2023/05/08 02:35:13;;;;;;;10.00;8.95;;;;;;;18.40;82.48;100665.69;5090389;28;20791;-77
2023/05/08 02:37:41;;;;;;;13.77;11.00;;;;;;;18.43;82.48;100664.28;5089331;28;20398;-77
2023/05/08 02:40:08;;;;;;;14.95;12.27;;;;;;;18.43;82.27;100662.34;5069339;28;20408;-77
2023/05/08 02:42:33;;;;;;;14.00;11.75;;;;;;;18.41;82.21;100669.22;5070352;28;20382;-77
2023/05/08 02:44:58;;;;;;;16.63;13.38;;;;;;;18.39;82.31;100672.25;5090260;28;20443;-77
2023/05/08 02:47:35;;;;;;;16.73;12.30;;;;;;;18.38;82.45;100664.31;5076826;28;20486;-77
2023/05/08 02:50:12;;;;;;;12.80;11.50;;;;;;;18.36;82.33;100664.63;5068464;28;20488;-77
2023/05/08 02:52:51;;;;;;;11.98;8.73;;;;;;;18.29;82.50;100674.28;5089918;28;20412;-77
2023/05/08 02:55:30;;;;;;;9.13;8.23;;;;;;;18.29;82.58;100677.03;5090147;28;20523;-77
2023/05/08 02:58:09;;;;;;;8.95;7.85;;;;;;;18.24;82.48;100674.34;5064795;28;20391;-77
2023/05/08 03:00:44;;;;;;;9.55;8.23;;;;;;;18.25;82.70;100676.78;5089720;28;20414;-77
2023/05/08 03:03:23;;;;;;;9.35;8.10;;;;;;;18.28;82.55;100669.91;5071676;28;20401;-77
2023/05/08 03:06:01;;;;;;;11.68;7.82;;;;;;;18.28;82.47;100667.16;5085476;28;20390;-77
2023/05/08 03:08:31;;;;;;;9.35;8.30;;;;;;;18.29;82.36;100671.56;5056456;28;20445;-77
2023/05/08 03:10:59;;;;;;;9.23;8.32;;;;;;;18.30;82.47;100654.81;5089606;28;20893;-77
2023/05/08 03:13:29;;;;;;;10.32;9.32;;;;;;;18.30;82.50;100660.28;5087553;28;20387;-77
2023/05/08 03:15:58;;;;;;;11.87;9.60;;;;;;;18.34;82.49;100660.53;5088800;28;20407;-77
2023/05/08 03:18:49;;;;;;;12.82;11.52;;;;;;;18.34;82.53;100657.78;5082652;28;20468;-77
2023/05/08 03:21:18;;;;;;;13.90;10.85;;;;;;;18.34;82.25;100653.09;5083093;28;20747;-77
2023/05/08 03:23:47;;;;;;;12.73;10.80;;;;;;;18.37;82.30;100659.94;5086803;28;20383;-77
2023/05/08 03:26:18;;;;;;;12.23;10.77;;;;;;;18.36;82.35;100652.81;5071316;28;20844;-77
2023/05/08 03:28:46;;;;;;;15.82;9.75;;;;;;;18.36;82.54;100653.63;5063384;28;20436;-77
2023/05/08 03:31:12;;;;;;;12.75;11.32;;;;;;;18.36;82.47;100661.06;5068610;28;20390;-77
2023/05/08 03:33:39;;;;;;;14.85;12.43;;;;;;;18.33;82.72;100656.97;5088697;28;20386;-77
2023/05/08 03:36:05;;;;;;;14.30;12.37;;;;;;;18.34;82.80;100655.03;5089277;28;20482;-77
2023/05/08 03:38:30;;;;;;;12.50;11.20;;;;;;;18.35;82.75;100654.75;5074875;28;20498;-77
2023/05/08 03:40:58;;;;;;;16.70;12.40;;;;;;;18.32;82.78;100663.56;5067191;28;20923;-77
2023/05/08 03:43:24;;;;;;;15.20;12.18;;;;;;;18.32;82.87;100660.81;5088116;28;20415;-77
2023/05/08 03:45:50;;;;;;;15.93;12.70;;;;;;;18.28;82.91;100665.25;5089104;28;20770;-77
2023/05/08 03:48:17;;;;;;;13.93;12.25;;;;;;;18.29;83.01;100680.59;5086501;28;20501;-77
2023/05/08 03:50:43;;;;;;;12.95;10.55;;;;;;;18.21;83.01;100674.94;5087464;28;20390;-77
2023/05/08 03:53:09;;;;;;;12.30;10.82;;;;;;;18.15;83.15;100674.97;5087160;28;20403;-77
2023/05/08 03:55:35;;;;;;;12.43;10.93;;;;;;;18.18;83.08;100673.56;5088652;28;20390;-77
2023/05/08 03:58:20;;;;;;;13.32;10.40;;;;;;;18.23;83.10;100680.94;5083293;28;20408;-77
2023/05/08 04:01:20;;;;;;;9.55;8.65;;;;;;;18.26;82.70;100677.63;5085472;28;20486;-77
2023/05/08 04:04:07;;;;;;;14.27;9.68;;;;;;;18.16;82.92;100678.53;4987207;28;20405;-77
2023/05/08 04:06:58;;;;;;;11.43;9.10;;;;;;;18.15;82.86;100680.47;5079388;28;20394;-77
2023/05/08 04:09:33;;;;;;;10.43;9.30;;;;;;;18.19;82.83;100679.88;5075959;28;20483;-77
2023/05/08 04:12:36;;;;;;;9.63;8.45;;;;;;;18.19;82.86;100683.44;5066859;28;20515;-77
2023/05/08 04:15:08;;;;;;;10.48;9.00;;;;;;;18.22;82.78;100682.03;5078195;28;20409;-77
2023/05/08 04:17:52;;;;;;;10.07;9.18;;;;;;;18.24;82.94;100688.06;5071356;28;20778;-77
2023/05/08 04:20:21;;;;;;;10.15;9.13;;;;;;;18.25;83.13;100685.03;5064894;28;20951;-77
2023/05/08 04:22:48;;;;;;;9.57;8.65;;;;;;;18.24;83.04;100682.59;5087723;28;20397;-77
2023/05/08 04:25:16;;;;;;;12.37;9.70;;;;;;;18.18;83.25;100690.03;5083976;28;20406;-77
2023/05/08 04:27:42;;;;;;;10.60;9.18;;;;;;;18.18;83.52;100678.28;5055662;28;20399;-77
2023/05/08 04:30:09;;;;;;;13.20;10.07;;;;;;;18.22;83.25;100685.59;5070237;28;20491;-77
2023/05/08 04:32:35;;;;;;;11.77;10.63;;;;;;;18.29;82.76;100683.34;5054859;28;20387;-77
2023/05/08 04:35:01;;;;;;;12.30;11.05;;;;;;;18.27;82.80;100685.56;5086360;28;20880;-77
2023/05/08 04:37:28;;;;;;;13.88;11.32;;;;;;;18.27;82.71;100684.75;5061658;28;20444;-77
2023/05/08 04:39:54;;;;;;;13.90;11.77;;;;;;;18.25;82.72;100685.03;5079444;28;20417;-78
2023/05/08 04:42:20;;;;;;;13.60;10.67;;;;;;;18.27;82.82;100682.81;5086176;28;20384;-77
2023/05/08 04:44:46;;;;;;;12.88;11.43;;;;;;;18.28;82.65;100681.69;5084775;28;20478;-77
2023/05/08 04:47:12;;;;;;;14.97;11.47;;;;;;;18.33;82.61;100680.84;5069467;28;20445;-77
2023/05/08 04:49:37;;;;;;;16.13;11.35;;;;;;;18.36;82.58;100691.22;5071574;28;20487;-80
2023/05/08 04:52:03;;;;;;;15.17;10.93;;;;;;;18.38;82.32;100697.22;5071027;28;20460;-77
2023/05/08 04:54:28;;;;;;;14.27;11.77;;;;;;;18.37;82.07;100698.38;5077661;28;20390;-80
2023/05/08 04:56:53;;;;;;;15.63;11.33;;;;;;;18.36;82.40;100699.47;5080972;28;20457;-79
2023/05/08 04:59:19;;;;;;;19.80;13.27;;;;;;;18.32;82.41;100701.16;5061741;28;20419;-78
2023/05/08 05:01:46;;;;;;;18.60;13.57;;;;;;;18.30;82.53;100706.13;5051326;28;20409;-78
2023/05/08 05:04:11;;;;;;;19.80;14.18;;;;;;;18.30;82.33;100708.88;5053680;28;20393;-78
2023/05/08 05:06:36;;;;;;;16.37;13.33;;;;;;;18.28;82.51;100714.63;5054204;28;20404;-80
2023/05/08 05:09:03;;;;;;;19.73;14.33;;;;;;;18.31;82.16;100718.75;5089257;28;20420;-81
2023/05/08 05:11:28;;;;;;;18.35;13.43;;;;;;;18.29;82.41;100716.25;5068555;28;20400;-82
2023/05/08 05:13:53;;;;;;;18.37;13.73;;;;;;;18.33;82.59;100716.50;5083365;28;20394;-81
2023/05/08 05:16:19;;;;;;;20.30;13.83;;;;;;;18.33;82.42;100717.34;5077557;28;20422;-81
2023/05/08 05:18:46;;;;;;;19.20;14.50;;;;;;;18.36;82.31;100719.50;5081512;28;20473;-82
2023/05/08 05:21:12;;;;;;;20.20;15.05;;;;;;;18.37;81.96;100718.41;5055180;28;20775;-81
2023/05/08 05:23:37;;;;;;;24.00;16.20;;;;;;;18.34;82.01;100724.44;5086521;28;20399;-81
2023/05/08 05:26:03;;;;;;;24.03;16.10;;;;;;;18.26;82.40;100721.50;5077761;28;20420;-79
2023/05/08 05:28:28;;;;;;;24.90;17.10;;;;;;;18.19;82.43;100729.25;5087793;28;20386;-78
2023/05/08 05:30:53;;;;;;;25.80;18.25;;;;;;;18.21;82.49;100727.84;5085173;28;20732;-80
2023/05/08 05:33:19;;;;;;;23.80;17.33;;;;;;;18.24;82.42;100721.00;5088844;28;20446;-80
2023/05/08 05:35:44;;;;;;;24.67;16.83;;;;;;;18.30;82.11;100723.41;5062300;28;20477;-80
2023/05/08 05:38:10;;;;;;;24.03;16.80;;;;;;;18.38;82.03;100731.00;5081553;28;20498;-77
2023/05/08 05:40:35;;;;;;;27.43;16.20;;;;;;;18.43;81.94;100728.19;5101033;28;20453;-78
2023/05/08 05:43:00;;;;;;;22.50;16.25;;;;;;;18.44;81.87;100731.78;5079209;28;20446;-78
2023/05/08 05:45:26;;;;;;;23.90;16.33;;;;;;;18.39;82.06;100735.38;5088917;28;20394;-77
2023/05/08 05:47:52;;;;;;;26.93;17.40;;;;;;;18.32;82.57;100734.91;5053874;28;20919;-78
2023/05/08 05:50:18;;;;;;;25.92;16.08;;;;;;;18.31;82.44;100741.47;5079734;28;20465;-77
2023/05/08 05:52:44;;;;;;;25.35;14.60;;;;;;;18.32;82.61;100740.38;5079737;28;20392;-77
2023/05/08 05:55:10;;;;;;;20.73;15.35;;;;;;;18.36;82.58;100740.63;5071708;28;20390;-77
2023/05/08 05:57:36;;;;;;;19.10;13.73;;;;;;;18.39;82.43;100742.78;5084404;28;20374;-77
2023/05/08 06:00:03;;;;;;;19.73;15.68;;;;;;;18.43;82.10;100747.41;5088391;28;20406;-77
2023/05/08 06:02:28;;;;;;;19.45;15.48;;;;;;;18.40;82.12;100738.94;5087429;28;20386;-77
2023/05/08 06:04:54;;;;;;;22.63;15.83;;;;;;;18.40;82.02;100742.50;5087954;28;20390;-77
2023/05/08 06:07:20;;;;;;;20.37;14.57;;;;;;;18.43;82.03;100746.59;5072536;28;20428;-77
2023/05/08 06:09:45;;;;;;;21.55;15.52;;;;;;;18.43;81.89;100744.66;5072583;28;20405;-78
2023/05/08 06:12:11;;;;;;;24.17;15.70;;;;;;;18.44;82.05;100749.03;5077351;28;20384;-77
2023/05/08 06:14:36;;;;;;;22.50;15.98;;;;;;;18.40;82.10;100745.25;5087844;28;20384;-77
2023/05/08 06:17:01;;;;;;;20.10;15.37;;;;;;;18.43;82.17;100749.34;5068510;28;20394;-78
2023/05/08 06:19:27;;;;;;;19.73;15.47;;;;;;;18.45;82.33;100749.84;5074916;28;20805;-77
2023/05/08 06:21:52;;;;;;;19.60;15.30;;;;;;;18.49;82.08;100753.66;5061631;28;20406;-77
2023/05/08 06:24:18;;;;;;;22.03;14.83;;;;;;;18.50;81.84;100747.09;5074085;28;20399;-77
2023/05/08 06:26:43;;;;;;;19.73;14.77;;;;;;;18.50;81.62;100747.94;5087735;28;20939;-77
2023/05/08 06:29:08;;;;;;;23.17;16.17;;;;;;;18.49;81.87;100751.75;5054433;28;20461;-77
2023/05/08 06:31:34;;;;;;;20.20;15.90;;;;;;;18.51;81.72;100759.69;5077971;28;20425;-78
2023/05/08 06:33:59;;;;;;;20.03;14.87;;;;;;;18.51;81.90;100754.22;5085598;28;20854;-77
2023/05/08 06:36:26;;;;;;;19.07;13.97;;;;;;;18.55;81.66;100761.59;5071437;28;20500;-77
2023/05/08 06:38:51;;;;;;;17.67;15.07;;;;;;;18.57;81.46;100756.59;5071935;28;20400;-77
2023/05/08 06:41:20;;;;;;;19.27;15.73;;;;;;;18.57;81.59;100762.09;5082912;28;20458;-77
2023/05/08 06:43:45;;;;;;;24.27;16.33;;;;;;;18.59;81.62;100756.34;5088207;28;20393;-77
2023/05/08 06:46:11;;;;;;;21.13;14.33;;;;;;;18.63;81.52;100760.13;5079697;28;20863;-77
2023/05/08 06:48:36;;;;;;;20.03;16.27;;;;;;;18.63;81.48;100760.13;5090073;28;20382;-77
2023/05/08 06:51:02;;;;;;;23.40;16.20;;;;;;;18.63;81.17;100760.97;5090174;28;20463;-77
2023/05/08 06:53:27;;;;;;;21.70;16.42;;;;;;;18.65;81.22;100758.72;5089739;28;20428;-77
2023/05/08 06:55:53;;;;;;;25.40;17.60;;;;;;;18.63;81.17;100758.22;5092247;28;20434;-77
2023/05/08 06:58:18;;;;;;;20.33;16.37;;;;;;;18.63;81.55;100760.13;5070514;28;20388;-77
2023/05/08 07:00:43;;;;;;;22.20;17.60;;;;;;;18.58;81.71;100760.19;5080876;28;20500;-77
2023/05/08 07:03:08;;;;;;;21.37;16.17;;;;;;;18.58;81.80;100754.69;5089670;28;20427;-77
2023/05/08 07:05:34;;;;;;;19.20;17.10;;;;;;;18.63;81.81;100757.41;5087071;28;20754;-77
2023/05/08 07:07:59;;;;;;;21.30;16.97;;;;;;;18.67;81.61;100758.47;5104882;28;20459;-77
2023/05/08 07:10:24;;;;;;;21.63;17.23;;;;;;;18.71;81.69;100755.91;5089795;28;20400;-77
2023/05/08 07:12:50;;;;;;;23.10;17.53;;;;;;;18.75;81.53;100757.81;5083823;28;20972;-77
2023/05/08 07:15:16;;;;;;;22.17;18.43;;;;;;;18.78;81.40;100757.22;5067718;28;20404;-77
2023/05/08 07:17:41;;;;;;;21.97;18.27;;;;;;;18.77;81.75;100760.28;5073389;28;20383;-77
2023/05/08 07:20:07;;;;;;;23.23;18.50;;;;;;;18.77;81.87;100749.28;5085560;28;20406;-77
2023/05/08 07:22:33;;;;;;;20.17;16.17;;;;;;;18.82;81.71;100760.19;5089485;28;20394;-77
2023/05/08 07:24:58;;;;;;;21.63;17.43;;;;;;;18.86;81.31;100759.34;5077593;28;20387;-77
2023/05/08 07:27:24;;;;;;;19.27;16.00;;;;;;;18.84;80.79;100768.94;5068551;28;20920;-77
2023/05/08 07:29:49;;;;;;;21.27;17.05;;;;;;;18.83;80.98;100775.56;5084416;28;20388;-77
2023/05/08 07:32:18;;;;;;;20.00;17.40;;;;;;;18.85;81.04;100765.09;5043136;28;20744;-77
2023/05/08 07:34:43;;;;;;;21.83;17.60;;;;;;;18.87;81.28;100774.69;5089430;28;20382;-77
2023/05/08 07:37:09;;;;;;;20.30;16.63;;;;;;;18.88;81.00;100770.84;5065690;28;20886;-77
2023/05/08 07:39:34;;;;;;;20.30;16.70;;;;;;;18.86;81.04;100770.31;5067574;28;20388;-77
2023/05/08 07:42:00;;;;;;;19.45;15.88;;;;;;;18.86;80.99;100769.50;5080052;28;20396;-77
2023/05/08 07:44:25;;;;;;;20.50;16.52;;;;;;;18.85;80.67;100770.59;5065870;28;20383;-77
2023/05/08 07:46:51;;;;;;;20.07;16.73;;;;;;;18.89;80.70;100763.41;5083009;28;20940;-77
2023/05/08 07:49:16;;;;;;;20.20;16.70;;;;;;;18.92;80.75;100771.06;5070265;28;20451;-77
2023/05/08 07:51:41;;;;;;;23.13;17.80;;;;;;;18.94;80.82;100777.06;5089313;28;20397;-77
2023/05/08 07:54:07;;;;;;;22.57;17.20;;;;;;;18.95;80.87;100782.28;5080693;28;20396;-77
2023/05/08 07:56:32;;;;;;;23.13;17.07;;;;;;;18.98;80.74;100769.88;5066971;28;20386;-78
2023/05/08 07:58:57;;;;;;;21.53;17.43;;;;;;;18.95;80.55;100781.47;5086916;28;20856;-77
2023/05/08 08:01:23;;;;;;;21.50;17.50;;;;;;;18.95;80.69;100785.03;5062131;28;20519;-77
2023/05/08 08:03:48;;;;;;;24.23;17.50;;;;;;;19.00;80.55;100786.91;5082911;28;20414;-77
2023/05/08 08:06:13;;;;;;;22.43;15.53;;;;;;;19.01;80.58;100783.03;5066944;28;20485;-77
2023/05/08 08:08:39;;;;;;;18.43;15.30;;;;;;;19.06;80.41;100786.56;5085319;28;20465;-77
2023/05/08 08:11:06;;;;;;;17.60;15.65;;;;;;;19.06;80.08;100775.56;5082695;28;22169;-78
2023/05/08 08:13:31;;;;;;;17.97;14.57;;;;;;;19.04;79.96;100776.94;5088567;28;20465;-77
2023/05/08 08:15:57;;;;;;;18.80;15.13;;;;;;;19.04;80.23;100779.69;5088582;28;20386;-77
2023/05/08 08:18:22;;;;;;;18.88;15.30;;;;;;;19.05;80.29;100779.41;5085545;28;20388;-77
2023/05/08 08:20:48;;;;;;;16.40;14.70;;;;;;;19.11;79.94;100781.00;5070191;28;20409;-77
2023/05/08 08:23:13;;;;;;;15.07;13.40;;;;;;;19.18;79.75;100777.88;5080959;28;20455;-77
2023/05/08 08:25:38;;;;;;;15.67;14.00;;;;;;;19.22;79.56;100778.13;5078921;28;20394;-77
2023/05/08 08:28:03;;;;;;;15.80;13.70;;;;;;;19.24;79.62;100779.44;5075710;28;20400;-78
2023/05/08 08:30:29;;;;;;;15.20;13.60;;;;;;;19.26;79.64;100779.16;5086902;28;20387;-77
2023/05/08 08:32:54;;;;;;;15.10;13.47;;;;;;;19.28;79.47;100782.44;5088457;28;20396;-77
2023/05/08 08:35:19;;;;;;;16.00;13.30;;;;;;;19.37;78.98;100775.97;5088482;28;20844;-77
2023/05/08 08:37:44;;;;;;;17.95;12.95;;;;;;;19.42;78.61;100777.88;5081365;28;20388;-77
2023/05/08 08:40:10;;;;;;;17.17;13.73;;;;;;;19.43;78.86;100774.03;5085702;28;20411;-77
2023/05/08 08:42:35;;;;;;;17.73;14.00;;;;;;;19.43;78.36;100774.81;5088373;28;20878;-77
2023/05/08 08:45:01;;;;;;;15.77;13.25;;;;;;;19.48;78.25;100783.00;5087987;28;20465;-77
2023/05/08 08:47:33;;;;;;;18.97;13.13;;;;;;;19.53;77.72;100777.44;5088385;28;20402;-77
2023/05/08 08:50:02;;;;;;;13.88;12.43;;;;;;;19.55;77.54;100779.91;5064702;28;20490;-77
2023/05/08 08:52:36;;;;;;;15.23;12.93;;;;;;;19.57;77.24;100780.41;5088312;28;20386;-77
2023/05/08 08:55:06;;;;;;;16.45;12.45;;;;;;;19.59;77.31;100776.25;5080459;28;20486;-77
2023/05/08 08:57:35;;;;;;;19.17;13.07;;;;;;;19.58;77.62;100782.06;5071166;28;20392;-77
2023/05/08 09:00:04;;;;;;;15.55;12.85;;;;;;;19.59;77.75;100784.50;5087160;28;20450;-77
2023/05/08 09:02:30;;;;;;;15.48;12.57;;;;;;;19.57;77.73;100785.91;5081922;28;20457;-77
2023/05/08 09:04:56;;;;;;;14.75;13.15;;;;;;;19.58;77.82;100785.63;5092097;28;20390;-77
2023/05/08 09:07:23;;;;;;;15.60;12.32;;;;;;;19.61;77.77;100786.97;5090484;28;20396;-77
2023/05/08 09:09:49;;;;;;;19.08;12.55;;;;;;;19.64;77.85;100792.69;5090367;28;20399;-77
2023/05/08 09:12:14;;;;;;;15.80;12.77;;;;;;;19.70;77.68;100793.41;5079749;28;20394;-77
2023/05/08 09:14:39;;;;;;;17.20;12.87;;;;;;;19.77;77.55;100788.38;5084570;28;20390;-77
2023/05/08 09:17:05;;;;;;;13.82;12.05;;;;;;;19.83;77.16;100786.34;5068662;28;20387;-77
2023/05/08 09:19:32;;;;;;;14.77;13.03;;;;;;;19.96;76.63;100791.09;5076917;28;20462;-77
2023/05/08 09:22:00;;;;;;;15.48;11.95;;;;;;;20.05;76.30;100792.06;5091647;28;20401;-76
2023/05/08 09:24:45;;;;;;;15.48;12.63;;;;;;;20.13;75.99;100794.94;5081901;28;20394;-77
2023/05/08 09:27:21;;;;;;;15.52;12.32;;;;;;;20.23;75.17;100796.72;5057211;28;20400;-77
2023/05/08 09:30:07;;;;;;;15.55;13.30;;;;;;;20.51;74.26;100794.91;5050687;28;20386;-77
2023/05/08 09:32:34;;;;;;;13.47;12.03;;;;;;;20.66;73.10;100795.44;5070224;28;20406;-77
2023/05/08 09:35:00;;;;;;;15.02;12.20;;;;;;;20.69;72.72;100794.81;5086124;28;20981;-77
2023/05/08 09:37:26;;;;;;;13.10;11.70;;;;;;;20.73;72.30;100795.03;5059054;28;20390;-77
2023/05/08 09:39:52;;;;;;;14.20;11.75;;;;;;;20.67;72.37;100801.75;5082549;28;20477;-77
2023/05/08 09:42:17;;;;;;;12.10;10.80;;;;;;;20.70;72.63;100801.16;5091367;28;20524;-77
2023/05/08 09:44:46;;;;;;;13.93;11.53;;;;;;;20.83;72.25;100805.84;5076519;28;20395;-77
2023/05/08 09:47:16;;;;;;;13.52;11.48;;;;;;;20.82;71.99;100806.16;5078076;28;20750;-76
2023/05/08 09:49:59;;;;;;;14.55;11.90;;;;;;;20.92;71.87;100790.25;5091216;28;20432;-77
2023/05/08 09:52:25;;;;;;;13.27;11.82;;;;;;;21.09;71.54;100796.00;5083467;28;20390;-76
2023/05/08 09:55:02;;;;;;;14.87;11.27;;;;;;;21.33;70.56;100806.00;5084802;28;20380;-77
2023/05/08 09:57:29;;;;;;;14.30;11.80;;;;;;;21.45;69.64;100803.53;5091035;28;20389;-76
2023/05/08 10:00:13;;;;;;;14.18;11.45;;;;;;;21.53;69.28;100806.38;5085511;28;20887;-76
2023/05/08 10:02:53;;;;;;;15.52;11.68;;;;;;;21.67;68.77;100800.81;5086796;28;20399;-76
2023/05/08 10:05:30;;;;;;;15.82;11.27;;;;;;;21.87;68.24;100803.09;5091167;28;20387;-76
2023/05/08 10:07:56;;;;;;;13.18;11.77;;;;;;;22.59;66.59;100797.50;5064348;28;20436;-77
2023/05/08 10:10:26;;;;;;;14.25;10.98;;;;;;;23.06;64.77;100804.22;5072459;28;20403;-76
2023/05/08 10:12:53;;;;;;;12.68;11.38;;;;;;;23.08;64.51;100810.28;5064655;28;20788;-77
2023/05/08 10:15:22;;;;;;;15.65;11.23;;;;;;;22.93;64.04;100807.91;5086862;28;20805;-77
2023/05/08 10:18:09;;;;;;;15.45;11.57;;;;;;;22.56;64.84;100801.69;5054177;28;20411;-76
2023/05/08 10:20:39;;;;;;;13.48;11.73;;;;;;;22.38;65.55;100802.72;5079729;28;20465;-76
2023/05/08 10:23:10;;;;;;;14.82;11.82;;;;;;;22.26;65.21;100794.22;5090380;28;20730;-76
2023/05/08 10:25:42;;;;;;;13.57;10.98;;;;;;;22.01;66.32;100800.34;5082772;28;20388;-76
2023/05/08 10:28:30;;;;;;;12.98;11.68;;;;;;;21.76;67.16;100798.16;5101038;28;20443;-76
2023/05/08 10:31:00;;;;;;;14.55;12.05;;;;;;;21.67;67.61;100804.38;5069519;28;20378;-76
2023/05/08 10:33:30;;;;;;;16.40;12.83;;;;;;;21.59;68.39;100799.63;5079184;28;20388;-75
2023/05/08 10:35:55;;;;;;;15.80;12.77;;;;;;;21.55;68.80;100801.38;5059011;28;20414;-76
2023/05/08 10:38:21;;;;;;;16.37;13.73;;;;;;;21.56;69.10;100802.19;5076153;28;20467;-76
2023/05/08 10:40:49;;;;;;;15.73;13.90;;;;;;;21.53;69.43;100800.03;5086801;28;20793;-76
2023/05/08 10:43:15;;;;;;;16.05;14.18;;;;;;;21.50;69.63;100792.41;5077689;28;20388;-76
2023/05/08 10:45:40;;;;;;;15.80;14.20;;;;;;;21.46;70.12;100794.94;5086358;28;20722;-76
2023/05/08 10:48:32;;;;;;;15.60;13.90;;;;;;;21.57;70.31;100795.56;5088479;28;20388;-75
2023/05/08 10:51:15;;;;;;;16.80;15.13;;;;;;;21.65;70.88;100789.28;5082220;28;20421;-75
2023/05/08 10:53:56;;;;;;;17.05;14.23;;;;;;;21.72;70.65;100781.41;5085104;28;20513;-75
2023/05/08 10:56:26;;;;;;;15.30;13.52;;;;;;;21.79;70.01;100784.56;5075855;28;20390;-75
2023/05/08 10:58:55;;;;;;;13.82;12.43;;;;;;;21.90;68.88;100785.16;5082430;28;20761;-75
2023/05/08 11:01:20;;;;;;;13.60;12.15;;;;;;;22.01;68.16;100789.28;5080237;28;20441;-75
2023/05/08 11:03:49;;;;;;;15.97;12.60;;;;;;;22.11;68.29;100781.59;5087487;28;20388;-76
2023/05/08 11:06:15;;;;;;;13.27;11.95;;;;;;;22.24;67.92;100774.38;5088777;28;20447;-75
2023/05/08 11:08:51;;;;;;;14.15;12.70;;;;;;;22.44;67.45;100778.53;5071453;28;20419;-76
2023/05/08 11:11:31;;;;;;;14.43;12.95;;;;;;;23.24;66.08;100776.34;5077800;28;20388;-75
2023/05/08 11:14:06;;;;;;;13.20;11.65;;;;;;;23.37;64.21;100771.81;5068881;28;20390;-75
2023/05/08 11:16:53;;;;;;;13.00;11.32;;;;;;;23.00;64.94;100772.34;5084014;28;20397;-75
2023/05/08 11:19:21;;;;;;;13.20;11.77;;;;;;;22.77;65.50;100779.06;5070307;28;20490;-74